createdAt,value
2017-10-06T00:00:34.947Z,5.00
2017-10-06T00:03:03.122Z,3.03
2017-10-06T00:05:31.296Z,3.90
2017-10-06T00:07:59.454Z,4.35
2017-10-06T00:10:27.645Z,4.60
2017-10-06T00:12:55.820Z,5.37
2017-10-06T00:15:24.006Z,3.47
2017-10-06T00:17:52.207Z,3.53
2017-10-06T00:20:20.524Z,4.30
2017-10-06T00:22:48.690Z,5.85
2017-10-06T00:25:18.048Z,5.70
2017-10-06T00:27:46.516Z,4.22
2017-10-06T00:30:14.699Z,4.20
2017-10-06T00:32:42.923Z,4.20
2017-10-06T00:35:11.100Z,4.07
2017-10-06T00:37:39.268Z,4.45
2017-10-06T00:40:07.455Z,6.20
2017-10-06T00:42:35.624Z,3.20
2017-10-06T00:45:04.139Z,4.00
2017-10-06T00:47:32.326Z,5.15
2017-10-06T00:50:00.489Z,4.20
2017-10-06T00:52:28.668Z,4.75
2017-10-06T00:54:56.897Z,5.30
2017-10-06T00:57:25.398Z,5.22
2017-10-06T00:59:53.582Z,3.62
2017-10-06T01:02:21.746Z,3.70
2017-10-06T01:04:50.617Z,7.80
2017-10-06T01:07:18.793Z,4.15
2017-10-06T01:09:46.981Z,5.73
2017-10-06T01:12:15.160Z,4.37
2017-10-06T01:14:43.709Z,5.23
2017-10-06T01:17:11.881Z,3.92
2017-10-06T01:19:40.034Z,4.13
2017-10-06T01:22:08.994Z,4.20
2017-10-06T01:24:37.162Z,4.78
2017-10-06T01:27:06.081Z,5.03
2017-10-06T01:29:35.014Z,6.40
2017-10-06T01:32:03.505Z,4.18
2017-10-06T01:34:31.659Z,6.20
2017-10-06T01:36:59.847Z,8.13
2017-10-06T01:39:28.039Z,5.70
2017-10-06T01:41:56.209Z,9.30
2017-10-06T01:44:24.397Z,6.32
2017-10-06T01:46:52.573Z,4.82
2017-10-06T01:49:21.523Z,6.77
2017-10-06T01:51:49.695Z,5.50
2017-10-06T01:54:19.594Z,7.03
2017-10-06T01:56:47.750Z,7.90
2017-10-06T01:59:16.681Z,7.23
2017-10-06T02:01:44.837Z,6.65
2017-10-06T02:04:13.018Z,8.90
2017-10-06T02:06:41.628Z,8.82
2017-10-06T02:09:09.809Z,6.80
2017-10-06T02:11:38.012Z,6.45
2017-10-06T02:14:06.956Z,10.20
2017-10-06T02:16:35.138Z,6.72
2017-10-06T02:19:03.597Z,8.02
2017-10-06T02:21:31.770Z,6.18
2017-10-06T02:23:59.947Z,6.68
2017-10-06T02:26:28.136Z,9.32
2017-10-06T02:28:57.215Z,7.68
2017-10-06T02:31:25.392Z,7.28
2017-10-06T02:33:53.566Z,5.40
2017-10-06T02:36:21.896Z,5.07
2017-10-06T02:38:51.253Z,6.10
2017-10-06T02:41:19.431Z,7.45
2017-10-06T02:43:47.593Z,5.60
2017-10-06T02:46:16.082Z,7.50
2017-10-06T02:48:44.264Z,6.87
2017-10-06T02:51:12.446Z,5.00
2017-10-06T02:53:40.632Z,6.18
2017-10-06T02:56:08.805Z,7.73
2017-10-06T02:58:36.981Z,8.05
2017-10-06T03:01:05.131Z,5.50
2017-10-06T03:03:33.325Z,6.60
2017-10-06T03:06:01.491Z,5.68
2017-10-06T03:08:29.678Z,7.87
2017-10-06T03:10:57.830Z,7.27
2017-10-06T03:13:26.388Z,7.47
2017-10-06T03:15:54.546Z,6.90
2017-10-06T03:18:22.731Z,8.32
2017-10-06T03:20:50.906Z,6.70
2017-10-06T03:23:19.085Z,9.68
2017-10-06T03:25:47.275Z,6.80
2017-10-06T03:28:15.469Z,8.10
2017-10-06T03:30:43.636Z,4.73
2017-10-06T03:33:11.795Z,6.20
2017-10-06T03:35:40.352Z,8.00
2017-10-06T03:38:08.513Z,6.12
2017-10-06T03:40:36.684Z,5.50
2017-10-06T03:43:04.868Z,7.53
2017-10-06T03:45:33.068Z,4.00
2017-10-06T03:48:01.249Z,7.85
2017-10-06T03:50:29.417Z,7.12
2017-10-06T03:52:57.614Z,6.28
2017-10-06T03:55:26.547Z,7.00
2017-10-06T03:57:55.018Z,6.32
2017-10-06T04:00:23.170Z,5.70
2017-10-06T04:02:52.087Z,7.22
2017-10-06T04:05:20.258Z,7.20
2017-10-06T04:07:48.419Z,5.60
2017-10-06T04:10:16.570Z,6.33
2017-10-06T04:12:44.729Z,5.75
2017-10-06T04:15:12.892Z,6.17
2017-10-06T04:17:41.066Z,14.57
2017-10-06T04:20:09.528Z,4.70
2017-10-06T04:22:37.686Z,6.97
2017-10-06T04:25:05.858Z,5.13
2017-10-06T04:27:34.055Z,6.37
2017-10-06T04:30:02.212Z,10.17
2017-10-06T04:32:30.415Z,4.97
2017-10-06T04:34:58.596Z,5.37
2017-10-06T04:37:26.766Z,5.57
2017-10-06T04:39:54.950Z,6.13
2017-10-06T04:42:24.189Z,7.45
2017-10-06T04:44:52.349Z,9.07
2017-10-06T04:47:20.507Z,9.43
2017-10-06T04:49:48.702Z,9.47
2017-10-06T04:52:16.891Z,12.07
2017-10-06T04:54:45.856Z,10.27
2017-10-06T04:57:14.016Z,6.85
2017-10-06T04:59:42.966Z,7.30
2017-10-06T05:02:11.154Z,6.10
2017-10-06T05:04:39.580Z,7.80
2017-10-06T05:07:07.748Z,8.48
2017-10-06T05:09:35.908Z,9.90
2017-10-06T05:12:04.622Z,11.95
2017-10-06T05:14:32.918Z,11.70
2017-10-06T05:17:02.115Z,9.73
2017-10-06T05:19:30.355Z,8.43
2017-10-06T05:21:58.626Z,8.05
2017-10-06T05:24:26.801Z,7.22
2017-10-06T05:26:55.012Z,12.05
2017-10-06T05:29:23.322Z,9.87
2017-10-06T05:31:51.776Z,9.18
2017-10-06T05:34:19.941Z,7.77
2017-10-06T05:36:48.098Z,8.15
2017-10-06T05:39:16.272Z,10.10
2017-10-06T05:41:44.427Z,11.60
2017-10-06T05:44:12.612Z,7.68
2017-10-06T05:46:40.779Z,8.60
2017-10-06T05:49:08.963Z,7.95
2017-10-06T05:51:37.151Z,8.63
2017-10-06T05:54:05.363Z,8.88
2017-10-06T05:56:34.463Z,11.85
2017-10-06T05:59:02.625Z,13.60
2017-10-06T06:01:31.560Z,9.65
2017-10-06T06:03:59.748Z,10.00
2017-10-06T06:06:27.999Z,10.18
2017-10-06T06:08:56.182Z,8.02
2017-10-06T06:11:24.353Z,9.17
2017-10-06T06:13:52.654Z,7.27
2017-10-06T06:16:21.127Z,9.45
2017-10-06T06:18:49.291Z,6.82
2017-10-06T06:21:17.460Z,8.70
2017-10-06T06:23:45.963Z,12.10
2017-10-06T06:26:14.129Z,13.93
2017-10-06T06:28:42.302Z,8.05
2017-10-06T06:31:10.470Z,9.47
2017-10-06T06:33:38.717Z,13.13
2017-10-06T06:36:06.890Z,8.48
2017-10-06T06:38:35.406Z,9.80
2017-10-06T06:41:03.573Z,5.80
2017-10-06T06:43:31.751Z,7.03
2017-10-06T06:45:59.963Z,12.13
2017-10-06T06:48:28.907Z,7.55
2017-10-06T06:50:57.088Z,10.50
2017-10-06T06:53:25.295Z,10.45
2017-10-06T06:55:53.521Z,6.00
2017-10-06T06:58:21.705Z,8.70
2017-10-06T07:00:49.894Z,14.87
2017-10-06T07:03:18.066Z,11.20
2017-10-06T07:05:46.231Z,8.53
2017-10-06T07:08:14.405Z,7.72
2017-10-06T07:10:42.710Z,11.77
2017-10-06T07:13:11.668Z,10.80
2017-10-06T07:15:39.838Z,6.15
2017-10-06T07:18:08.029Z,6.82
2017-10-06T07:20:36.975Z,4.33
2017-10-06T07:23:05.161Z,5.43
2017-10-06T07:25:33.323Z,4.70
2017-10-06T07:28:01.536Z,9.15
2017-10-06T07:30:29.711Z,8.53
2017-10-06T07:32:58.624Z,8.98
2017-10-06T07:35:26.802Z,5.47
2017-10-06T07:37:55.729Z,7.53
2017-10-06T07:40:23.909Z,6.47
2017-10-06T07:42:52.071Z,6.40
2017-10-06T07:45:20.415Z,9.80
2017-10-06T07:47:49.352Z,5.70
2017-10-06T07:50:17.833Z,3.43
2017-10-06T07:52:45.999Z,9.07
2017-10-06T07:55:14.185Z,4.80
2017-10-06T07:57:42.359Z,4.25
2017-10-06T08:00:10.509Z,8.23
2017-10-06T08:02:38.699Z,8.50
2017-10-06T08:05:06.870Z,3.30
2017-10-06T08:07:45.413Z,2.40
2017-10-06T08:10:15.067Z,5.83
2017-10-06T08:12:44.017Z,3.08
2017-10-06T08:15:12.195Z,3.90
2017-10-06T08:17:40.385Z,3.03
2017-10-06T08:20:08.568Z,3.80
2017-10-06T08:22:37.537Z,10.00
2017-10-06T08:25:05.734Z,6.90
2017-10-06T08:27:34.666Z,2.62
2017-10-06T08:30:02.860Z,3.73
2017-10-06T08:32:31.035Z,6.68
2017-10-06T08:34:59.203Z,2.65
2017-10-06T08:37:27.369Z,2.85
2017-10-06T08:39:55.554Z,4.33
2017-10-06T08:42:23.719Z,5.80
2017-10-06T08:44:51.881Z,7.23
2017-10-06T08:47:20.071Z,3.47
2017-10-06T08:49:48.255Z,2.17
2017-10-06T08:52:16.446Z,6.07
2017-10-06T08:54:44.608Z,3.10
2017-10-06T08:57:12.864Z,0.90
2017-10-06T08:59:41.023Z,4.87
2017-10-06T09:02:09.243Z,1.67
2017-10-06T09:04:38.171Z,4.60
2017-10-06T09:07:06.362Z,3.72
2017-10-06T09:09:34.525Z,1.20
2017-10-06T09:12:02.718Z,2.67
2017-10-06T09:14:30.900Z,1.80
2017-10-06T09:16:59.077Z,2.80
2017-10-06T09:19:27.259Z,3.83
2017-10-06T09:21:55.419Z,0.95
2017-10-06T09:24:23.655Z,3.80
2017-10-06T09:26:51.813Z,2.03
2017-10-06T09:29:20.743Z,1.97
2017-10-06T09:31:49.706Z,4.25
2017-10-06T09:34:17.882Z,2.17
2017-10-06T09:36:46.053Z,2.62
2017-10-06T09:39:14.210Z,3.33
2017-10-06T09:41:42.662Z,2.20
2017-10-06T09:44:10.835Z,3.85
2017-10-06T09:46:39.010Z,1.30
2017-10-06T09:49:07.174Z,2.08
2017-10-06T09:51:35.345Z,2.97
2017-10-06T09:54:03.530Z,5.05
2017-10-06T09:56:32.471Z,6.40
2017-10-06T09:59:00.680Z,5.10
2017-10-06T10:01:28.838Z,2.93
2017-10-06T10:03:57.053Z,2.37
2017-10-06T10:06:26.026Z,3.93
2017-10-06T10:08:54.216Z,2.78
2017-10-06T10:11:23.163Z,2.27
2017-10-06T10:13:51.335Z,1.87
2017-10-06T10:16:19.506Z,3.00
2017-10-06T10:18:47.688Z,2.37
2017-10-06T10:21:15.878Z,2.57
2017-10-06T10:23:44.177Z,3.90
2017-10-06T10:26:13.117Z,5.80
2017-10-06T10:28:41.300Z,3.40
2017-10-06T10:31:09.490Z,3.40
2017-10-06T10:33:37.752Z,4.30
2017-10-06T10:36:05.965Z,2.37
2017-10-06T10:38:34.906Z,2.50
2017-10-06T10:41:03.084Z,5.10
2017-10-06T10:43:31.267Z,3.83
2017-10-06T10:45:59.441Z,2.72
2017-10-06T10:48:27.620Z,4.25
2017-10-06T10:50:55.794Z,3.53
2017-10-06T10:53:23.968Z,2.90
2017-10-06T10:55:52.130Z,3.08
2017-10-06T10:58:20.314Z,3.30
2017-10-06T11:00:48.483Z,2.20
2017-10-06T11:03:16.643Z,1.53
2017-10-06T11:05:44.846Z,5.37
2017-10-06T11:08:13.037Z,1.67
2017-10-06T11:10:41.659Z,2.75
2017-10-06T11:13:09.988Z,3.63
2017-10-06T11:15:38.965Z,2.80
2017-10-06T11:18:07.219Z,1.43
2017-10-06T11:20:35.381Z,2.10
2017-10-06T11:23:03.588Z,6.30
2017-10-06T11:25:31.769Z,3.35
2017-10-06T11:28:00.741Z,4.43
2017-10-06T11:30:28.916Z,2.55
2017-10-06T11:32:57.102Z,4.45
2017-10-06T11:35:25.262Z,3.40
2017-10-06T11:37:54.131Z,4.03
2017-10-06T11:40:22.326Z,3.72
2017-10-06T11:42:50.490Z,3.33
2017-10-06T11:45:18.684Z,4.70
2017-10-06T11:47:46.878Z,2.67
2017-10-06T11:50:15.833Z,2.37
2017-10-06T11:52:44.021Z,8.47
2017-10-06T11:55:12.198Z,2.62
2017-10-06T11:57:40.371Z,3.70
2017-10-06T12:00:08.542Z,2.95
2017-10-06T12:02:36.701Z,3.60
2017-10-06T12:05:04.911Z,2.85
2017-10-06T12:07:33.103Z,2.72
2017-10-06T12:10:01.319Z,2.53
2017-10-06T12:12:29.507Z,6.00
2017-10-06T12:14:58.057Z,1.98
2017-10-06T12:17:26.211Z,3.30
2017-10-06T12:19:54.402Z,5.07
2017-10-06T12:22:22.587Z,2.17
2017-10-06T12:24:50.759Z,2.35
2017-10-06T12:27:18.941Z,1.30
2017-10-06T12:29:47.114Z,1.92
2017-10-06T12:32:16.797Z,3.00
2017-10-06T12:34:45.055Z,2.80
2017-10-06T12:37:13.231Z,3.50
2017-10-06T12:39:41.402Z,2.97
2017-10-06T12:42:09.645Z,2.20
2017-10-06T12:44:38.591Z,2.00
2017-10-06T12:47:06.783Z,3.03
2017-10-06T12:49:34.967Z,2.17
2017-10-06T12:52:03.167Z,4.20
2017-10-06T12:54:32.091Z,2.70
2017-10-06T12:57:00.250Z,1.33
2017-10-06T12:59:28.456Z,2.10
2017-10-06T13:01:56.599Z,1.30
2017-10-06T13:04:24.769Z,1.20
2017-10-06T13:06:52.944Z,2.23
2017-10-06T13:09:21.148Z,1.98
2017-10-06T13:11:49.383Z,1.10
2017-10-06T13:14:18.305Z,1.15
2017-10-06T13:16:46.479Z,1.30
2017-10-06T13:19:14.849Z,2.62
2017-10-06T13:21:44.663Z,1.80
2017-10-06T13:24:13.029Z,4.32
2017-10-06T13:26:41.944Z,2.17
2017-10-06T13:29:10.119Z,2.40
2017-10-06T13:31:38.334Z,1.20
2017-10-06T13:34:07.316Z,2.37
2017-10-06T13:36:35.487Z,2.97
2017-10-06T13:39:03.704Z,1.80
2017-10-06T13:41:31.882Z,1.80
2017-10-06T13:44:00.094Z,2.20
2017-10-06T13:46:28.269Z,1.33
2017-10-06T13:48:56.437Z,2.22
2017-10-06T13:51:24.695Z,3.10
2017-10-06T13:53:52.918Z,2.50
2017-10-06T13:56:21.885Z,2.28
2017-10-06T13:58:50.084Z,2.42
2017-10-06T14:01:18.273Z,6.45
2017-10-06T14:03:46.655Z,2.95
2017-10-06T14:06:14.906Z,3.67
2017-10-06T14:08:43.854Z,2.47
2017-10-06T14:11:12.046Z,1.37
2017-10-06T14:13:40.258Z,0.60
2017-10-06T14:16:08.446Z,0.80
2017-10-06T14:18:36.647Z,1.02
2017-10-06T14:21:04.830Z,1.60
2017-10-06T14:23:33.064Z,2.50
2017-10-06T14:26:01.253Z,1.40
2017-10-06T14:28:29.721Z,0.87
2017-10-06T14:30:57.911Z,1.90
2017-10-06T14:33:26.083Z,2.25
2017-10-06T14:35:54.254Z,1.80
2017-10-06T14:38:22.492Z,4.20
2017-10-06T14:40:50.791Z,1.25
2017-10-06T14:43:18.973Z,2.30
2017-10-06T14:45:47.172Z,2.42
2017-10-06T14:48:15.397Z,3.23
2017-10-06T14:50:44.587Z,3.08
2017-10-06T14:53:13.558Z,3.77
2017-10-06T14:55:41.714Z,2.83
2017-10-06T14:58:09.989Z,4.37
2017-10-06T15:00:38.196Z,2.60
2017-10-06T15:03:07.147Z,2.30
2017-10-06T15:05:35.347Z,3.70
2017-10-06T15:08:03.534Z,1.90
2017-10-06T15:10:32.462Z,1.40
2017-10-06T15:13:00.656Z,2.13
2017-10-06T15:15:28.894Z,1.80
2017-10-06T15:17:57.139Z,2.17
2017-10-06T15:20:25.324Z,5.43
2017-10-06T15:22:54.290Z,3.60
2017-10-06T15:25:22.470Z,2.80
2017-10-06T15:27:50.640Z,2.10
2017-10-06T15:30:18.864Z,3.90
2017-10-06T15:32:47.061Z,2.05
2017-10-06T15:35:15.225Z,2.05
2017-10-06T15:37:43.399Z,4.20
2017-10-06T15:40:11.581Z,3.08
2017-10-06T15:42:39.729Z,2.17
2017-10-06T15:45:07.911Z,2.85
2017-10-06T15:47:36.085Z,3.40
2017-10-06T15:50:04.243Z,2.75
2017-10-06T15:52:32.434Z,6.90
2017-10-06T15:55:00.647Z,3.03
2017-10-06T15:57:28.831Z,7.60
2017-10-06T15:59:57.805Z,3.25
2017-10-06T16:02:26.000Z,2.60
2017-10-06T16:04:54.935Z,3.42
2017-10-06T16:07:23.114Z,3.47
2017-10-06T16:09:51.322Z,2.78
2017-10-06T16:12:19.492Z,5.07
2017-10-06T16:14:47.733Z,3.42
2017-10-06T16:17:15.905Z,2.27
2017-10-06T16:19:44.096Z,2.53
2017-10-06T16:22:12.282Z,3.20
2017-10-06T16:24:40.473Z,5.50
2017-10-06T16:27:08.709Z,3.87
2017-10-06T16:29:36.889Z,4.37
2017-10-06T16:32:05.358Z,3.10
2017-10-06T16:34:33.580Z,3.05
2017-10-06T16:37:01.750Z,4.30
2017-10-06T16:39:30.746Z,6.40
2017-10-06T16:41:58.942Z,3.12
2017-10-06T16:44:27.132Z,4.65
2017-10-06T16:46:55.380Z,7.70
2017-10-06T16:49:24.363Z,2.35
2017-10-06T16:51:52.558Z,2.20
2017-10-06T16:54:20.752Z,7.50
2017-10-06T16:56:48.956Z,3.22
2017-10-06T16:59:17.119Z,2.30
2017-10-06T17:01:45.312Z,4.60
2017-10-06T17:04:13.467Z,4.45
2017-10-06T17:06:41.709Z,4.30
2017-10-06T17:09:09.941Z,2.20
2017-10-06T17:11:38.280Z,2.77
2017-10-06T17:14:07.314Z,3.08
2017-10-06T17:16:36.295Z,2.67
2017-10-06T17:19:04.533Z,2.20
2017-10-06T17:21:32.715Z,2.47
2017-10-06T17:24:00.918Z,1.58
2017-10-06T17:26:29.089Z,1.80
2017-10-06T17:28:57.261Z,3.62
2017-10-06T17:31:25.436Z,3.33
2017-10-06T17:33:53.929Z,1.90
2017-10-06T17:36:22.098Z,4.10
2017-10-06T17:38:50.293Z,3.40
2017-10-06T17:41:19.257Z,2.65
2017-10-06T17:43:47.463Z,2.65
2017-10-06T17:46:16.402Z,2.10
2017-10-06T17:48:44.547Z,2.65
2017-10-06T17:51:12.718Z,2.00
2017-10-06T17:53:40.936Z,3.37
2017-10-06T17:56:09.128Z,1.92
2017-10-06T17:58:37.298Z,2.12
2017-10-06T18:01:05.879Z,3.62
2017-10-06T18:03:34.069Z,2.30
2017-10-06T18:06:03.039Z,3.25
2017-10-06T18:08:31.225Z,5.07
2017-10-06T18:10:59.409Z,4.30
2017-10-06T18:13:28.334Z,5.05
2017-10-06T18:15:56.512Z,3.35
2017-10-06T18:18:24.762Z,5.37
2017-10-06T18:20:52.997Z,4.03
2017-10-06T18:23:21.679Z,3.20
2017-10-06T18:25:49.867Z,4.35
2017-10-06T18:28:18.064Z,5.17
2017-10-06T18:30:47.007Z,5.37
2017-10-06T18:33:15.479Z,5.43
2017-10-06T18:35:43.660Z,6.15
2017-10-06T18:38:11.854Z,5.95
2017-10-06T18:40:43.966Z,3.95
2017-10-06T18:43:12.185Z,6.70
2017-10-06T18:45:40.385Z,6.30
2017-10-06T18:48:08.623Z,5.20
2017-10-06T18:50:36.801Z,8.38
2017-10-06T18:53:04.984Z,5.82
2017-10-06T18:55:33.221Z,5.80
2017-10-06T18:58:01.392Z,5.90
2017-10-06T19:00:29.556Z,6.15
2017-10-06T19:02:57.761Z,5.77
2017-10-06T19:05:25.954Z,9.23
2017-10-06T19:07:54.138Z,9.40
2017-10-06T19:10:23.088Z,7.22
2017-10-06T19:12:51.319Z,6.47
2017-10-06T19:15:19.576Z,6.85
2017-10-06T19:17:47.779Z,6.13
2017-10-06T19:20:15.985Z,8.07
2017-10-06T19:22:44.160Z,6.97
2017-10-06T19:25:12.364Z,7.07
2017-10-06T19:27:41.790Z,8.90
2017-10-06T19:30:10.737Z,9.57
2017-10-06T19:32:38.930Z,6.70
2017-10-06T19:35:07.119Z,9.40
2017-10-06T19:37:36.099Z,7.45
2017-10-06T19:40:04.303Z,7.47
2017-10-06T19:42:32.480Z,10.63
2017-10-06T19:45:00.725Z,8.18
2017-10-06T19:47:28.912Z,7.40
2017-10-06T19:49:57.912Z,6.50
2017-10-06T19:52:26.097Z,10.70
2017-10-06T19:54:54.782Z,6.85
2017-10-06T19:57:22.934Z,7.57
2017-10-06T20:02:25.516Z,7.00
2017-10-06T20:10:00.763Z,7.25
2017-10-06T20:12:28.953Z,8.83
2017-10-06T20:17:31.426Z,11.10
2017-10-06T20:19:59.621Z,8.40
2017-10-06T20:22:27.862Z,10.43
2017-10-06T20:24:56.289Z,7.60
2017-10-06T20:27:24.511Z,9.00
2017-10-06T20:29:52.707Z,9.70
2017-10-06T20:37:28.993Z,9.13
2017-10-06T20:39:57.202Z,10.75
2017-10-06T20:52:40.353Z,9.77
2017-10-06T20:57:41.927Z,8.60
2017-10-06T21:00:10.096Z,6.15
2017-10-06T21:02:38.268Z,8.60
2017-10-06T21:05:06.504Z,5.95
2017-10-06T21:12:41.623Z,8.32
2017-10-06T21:15:09.797Z,7.15
2017-10-06T21:22:46.048Z,6.93
2017-10-06T21:30:22.584Z,7.35
2017-10-06T21:35:24.364Z,8.07
2017-10-06T21:40:26.372Z,7.35
2017-10-06T21:45:29.927Z,8.32
2017-10-06T21:50:31.906Z,9.35
2017-10-06T21:53:00.159Z,9.17
2017-10-06T21:58:01.695Z,12.53
2017-10-06T22:00:30.638Z,8.57
2017-10-06T22:02:58.813Z,8.67
2017-10-06T22:13:08.251Z,9.00
2017-10-06T22:15:37.187Z,10.10
2017-10-06T22:18:05.388Z,9.13
2017-10-06T22:20:33.551Z,10.75
2017-10-06T22:23:01.740Z,9.33
2017-10-06T22:25:30.170Z,10.23
2017-10-06T22:27:58.350Z,10.83
2017-10-06T22:33:00.045Z,10.75
2017-10-06T22:35:28.959Z,12.02
2017-10-06T22:40:31.478Z,11.38
2017-10-06T22:58:22.913Z,8.68
2017-10-06T23:03:24.636Z,9.27
2017-10-06T23:05:52.801Z,10.60
2017-10-06T23:08:21.244Z,10.30
2017-10-06T23:10:49.514Z,9.43
2017-10-06T23:15:51.818Z,9.75
2017-10-06T23:20:53.507Z,11.20
2017-10-06T23:25:55.973Z,8.18
2017-10-06T23:28:24.134Z,8.60
2017-10-06T23:43:39.780Z,9.60
2017-10-06T23:46:08.239Z,9.95
2017-10-06T23:51:10.977Z,8.52
2017-10-06T23:56:13.106Z,8.50
2017-10-06T23:58:41.301Z,9.57
